createdAt,value
2023-09-08T00:03:39.739Z,6.90
2023-09-08T00:06:07.380Z,6.35
2023-09-08T00:08:35.206Z,7.53
2023-09-08T00:11:03.062Z,7.05
2023-09-08T00:13:30.714Z,6.90
2023-09-08T00:15:59.810Z,7.03
2023-09-08T00:18:27.624Z,6.72
2023-09-08T00:20:55.435Z,6.63
2023-09-08T00:23:23.081Z,6.30
2023-09-08T00:25:51.464Z,6.50
2023-09-08T00:28:19.123Z,6.10
2023-09-08T00:30:46.780Z,6.82
2023-09-08T00:33:15.880Z,6.82
2023-09-08T00:35:46.642Z,7.25
2023-09-08T00:38:14.292Z,7.03
2023-09-08T00:40:42.020Z,6.78
2023-09-08T00:43:10.792Z,7.20
2023-09-08T00:45:42.340Z,5.75
2023-09-08T00:48:11.397Z,6.50
2023-09-08T00:53:09.793Z,6.50
2023-09-08T00:55:37.755Z,6.85
2023-09-08T00:58:05.662Z,6.38
2023-09-08T01:00:33.987Z,7.28
2023-09-08T01:03:01.952Z,7.13
2023-09-08T01:05:29.696Z,6.68
2023-09-08T01:07:59.234Z,6.40
2023-09-08T01:10:27.065Z,6.05
2023-09-08T01:12:55.520Z,6.68
2023-09-08T01:15:23.313Z,6.85
2023-09-08T01:17:51.219Z,6.63
2023-09-08T01:20:23.313Z,6.70
2023-09-08T01:23:05.555Z,7.15
2023-09-08T01:25:37.667Z,6.65
2023-09-08T01:28:07.132Z,6.50
2023-09-08T01:30:35.793Z,6.68
2023-09-08T01:33:06.825Z,6.18
2023-09-08T01:35:34.626Z,6.35
2023-09-08T01:38:02.519Z,6.05
2023-09-08T01:40:30.219Z,6.90
2023-09-08T01:42:59.410Z,6.93
2023-09-08T01:45:27.270Z,6.53
2023-09-08T01:47:55.057Z,6.78
2023-09-08T01:50:25.390Z,6.88
2023-09-08T01:52:53.267Z,6.80
2023-09-08T01:55:21.697Z,6.70
2023-09-08T01:57:49.444Z,6.57
2023-09-08T02:00:20.124Z,6.68
2023-09-08T02:05:16.761Z,7.20
2023-09-08T02:07:44.550Z,6.60
2023-09-08T02:10:12.493Z,7.00
2023-09-08T02:12:40.515Z,6.97
2023-09-08T02:15:10.163Z,6.70
2023-09-08T02:17:39.408Z,6.63
2023-09-08T02:20:08.651Z,6.63
2023-09-08T02:22:36.330Z,6.55
2023-09-08T02:25:04.292Z,6.57
2023-09-08T02:27:31.970Z,6.55
2023-09-08T02:29:59.830Z,6.63
2023-09-08T02:32:29.622Z,6.70
2023-09-08T02:34:58.813Z,6.97
2023-09-08T02:39:54.056Z,7.18
2023-09-08T02:42:21.721Z,6.82
2023-09-08T02:44:49.359Z,6.43
2023-09-08T02:47:17.348Z,6.90
2023-09-08T02:49:45.821Z,6.55
2023-09-08T02:52:14.820Z,6.82
2023-09-08T02:54:42.679Z,6.50
2023-09-08T02:57:10.588Z,6.70
2023-09-08T02:59:38.528Z,6.38
2023-09-08T03:02:06.760Z,6.97
2023-09-08T03:04:34.661Z,6.68
2023-09-08T03:07:02.744Z,6.40
2023-09-08T03:09:31.878Z,7.40
2023-09-08T03:11:59.884Z,6.15
2023-09-08T03:14:27.586Z,6.43
2023-09-08T03:16:57.230Z,6.43
2023-09-08T03:21:54.027Z,6.30
2023-09-08T03:24:21.662Z,7.40
2023-09-08T03:26:50.690Z,6.47
2023-09-08T03:29:18.561Z,6.60
2023-09-08T03:31:46.325Z,7.03
2023-09-08T03:34:14.551Z,6.20
2023-09-08T03:36:42.523Z,6.78
2023-09-08T03:39:10.770Z,7.07
2023-09-08T03:44:08.453Z,7.28
2023-09-08T03:46:36.195Z,7.03
2023-09-08T03:49:04.140Z,6.75
2023-09-08T03:51:31.816Z,7.20
2023-09-08T03:53:59.601Z,7.63
2023-09-08T03:56:27.373Z,6.82
2023-09-08T03:58:55.101Z,7.38
2023-09-08T04:01:24.642Z,6.30
2023-09-08T04:03:52.581Z,6.70
2023-09-08T04:06:20.837Z,6.72
2023-09-08T04:08:49.848Z,6.55
2023-09-08T04:11:17.495Z,6.75
2023-09-08T04:13:45.154Z,7.53
2023-09-08T04:16:12.993Z,7.00
2023-09-08T04:18:42.346Z,7.13
2023-09-08T04:21:10.606Z,6.60
2023-09-08T04:23:38.479Z,6.72
2023-09-08T04:26:06.119Z,6.97
2023-09-08T04:28:33.741Z,7.05
2023-09-08T04:31:01.397Z,6.75
2023-09-08T04:33:30.426Z,6.88
2023-09-08T04:35:59.509Z,7.35
2023-09-08T04:38:27.181Z,6.97
2023-09-08T04:40:54.989Z,7.38
2023-09-08T04:43:22.716Z,7.40
2023-09-08T04:45:51.708Z,7.20
2023-09-08T04:50:47.180Z,6.80
2023-09-08T04:53:16.364Z,7.55
2023-09-08T04:58:12.125Z,6.80
2023-09-08T05:00:40.885Z,7.10
2023-09-08T05:03:09.444Z,7.05
2023-09-08T05:05:37.867Z,7.47
2023-09-08T05:08:06.189Z,7.50
2023-09-08T05:10:35.564Z,7.47
2023-09-08T05:15:35.426Z,7.05
2023-09-08T05:18:04.293Z,6.97
2023-09-08T05:20:32.572Z,7.45
2023-09-08T05:23:01.664Z,7.10
2023-09-08T05:25:29.448Z,6.95
2023-09-08T05:27:58.614Z,7.45
2023-09-08T05:32:55.367Z,7.72
2023-09-08T05:35:23.154Z,8.07
2023-09-08T05:37:50.842Z,8.23
2023-09-08T05:40:19.829Z,7.60
2023-09-08T05:42:47.562Z,7.85
2023-09-08T05:45:16.579Z,7.22
2023-09-08T05:47:44.796Z,6.97
2023-09-08T05:50:13.138Z,7.57
2023-09-08T05:52:40.881Z,7.57
2023-09-08T05:55:09.196Z,7.97
2023-09-08T05:57:38.030Z,7.25
2023-09-08T06:00:06.583Z,7.50
2023-09-08T06:02:42.256Z,7.10
2023-09-08T06:05:14.270Z,7.25
2023-09-08T06:07:50.918Z,8.00
2023-09-08T06:10:25.541Z,7.50
2023-09-08T06:12:53.354Z,7.55
2023-09-08T06:15:21.316Z,7.95
2023-09-08T06:17:51.424Z,7.93
2023-09-08T06:22:46.923Z,7.07
2023-09-08T06:25:14.839Z,7.55
2023-09-08T06:27:42.873Z,7.50
2023-09-08T06:30:11.717Z,7.10
2023-09-08T06:32:40.041Z,7.38
2023-09-08T06:35:10.054Z,7.80
2023-09-08T06:37:38.483Z,7.05
2023-09-08T06:40:08.623Z,7.65
2023-09-08T06:42:36.589Z,7.00
2023-09-08T06:45:14.563Z,8.38
2023-09-08T06:47:42.412Z,6.97
2023-09-08T06:50:11.979Z,7.05
2023-09-08T06:52:39.670Z,7.03
2023-09-08T06:55:07.765Z,7.15
2023-09-08T06:57:36.104Z,7.25
2023-09-08T07:00:07.005Z,7.93
2023-09-08T07:02:35.068Z,6.90
2023-09-08T07:05:07.609Z,7.03
2023-09-08T07:07:37.050Z,8.13
2023-09-08T07:10:06.410Z,7.53
2023-09-08T07:12:34.201Z,7.55
2023-09-08T07:15:01.906Z,8.60
2023-09-08T07:17:29.667Z,7.00
2023-09-08T07:19:57.484Z,7.78
2023-09-08T07:22:25.619Z,8.20
2023-09-08T07:24:55.102Z,7.37
2023-09-08T07:27:23.625Z,7.90
2023-09-08T07:29:51.489Z,8.52
2023-09-08T07:32:20.190Z,7.50
2023-09-08T07:34:53.366Z,6.85
2023-09-08T07:37:21.408Z,7.72
2023-09-08T07:39:49.061Z,7.70
2023-09-08T07:42:18.497Z,8.30
2023-09-08T07:44:47.160Z,7.50
2023-09-08T07:47:14.814Z,6.80
2023-09-08T07:49:47.246Z,8.43
2023-09-08T07:52:14.871Z,7.53
2023-09-08T07:54:42.513Z,7.15
2023-09-08T07:57:10.435Z,7.88
2023-09-08T07:59:39.773Z,7.68
2023-09-08T08:02:07.438Z,7.80
2023-09-08T08:04:35.120Z,7.25
2023-09-08T08:07:03.448Z,7.53
2023-09-08T08:09:31.084Z,7.32
2023-09-08T08:11:58.815Z,6.85
2023-09-08T08:14:26.460Z,6.28
2023-09-08T08:16:55.428Z,6.80
2023-09-08T08:21:54.959Z,6.90
2023-09-08T08:24:22.669Z,7.57
2023-09-08T08:26:53.011Z,7.25
2023-09-08T08:29:20.851Z,6.97
2023-09-08T08:31:48.534Z,7.13
2023-09-08T08:34:17.524Z,6.95
2023-09-08T08:36:45.206Z,6.75
2023-09-08T08:39:12.926Z,6.88
2023-09-08T08:41:42.210Z,7.15
2023-09-08T08:44:10.163Z,6.80
2023-09-08T08:46:39.626Z,8.13
2023-09-08T08:49:09.719Z,7.03
2023-09-08T08:51:40.320Z,7.45
2023-09-08T08:54:08.711Z,6.95
2023-09-08T08:56:38.002Z,6.85
2023-09-08T08:59:06.084Z,6.93
2023-09-08T09:01:34.455Z,6.80
2023-09-08T09:04:03.026Z,6.90
2023-09-08T09:06:30.965Z,7.07
2023-09-08T09:09:01.920Z,6.20
2023-09-08T09:11:29.632Z,7.40
2023-09-08T09:13:57.529Z,7.13
2023-09-08T09:16:25.361Z,6.35
2023-09-08T09:18:57.608Z,6.07
2023-09-08T09:21:26.221Z,6.65
2023-09-08T09:23:55.487Z,6.63
2023-09-08T09:26:28.336Z,6.72
2023-09-08T09:28:56.202Z,7.40
2023-09-08T09:31:27.449Z,6.97
2023-09-08T09:34:06.536Z,6.78
2023-09-08T09:36:34.437Z,6.03
2023-09-08T09:39:02.825Z,6.45
2023-09-08T09:41:32.131Z,6.03
2023-09-08T09:44:00.303Z,6.20
2023-09-08T09:46:30.445Z,5.90
2023-09-08T09:48:58.676Z,6.18
2023-09-08T09:51:26.334Z,6.28
2023-09-08T09:53:55.421Z,6.20
2023-09-08T09:56:24.548Z,5.55
2023-09-08T09:58:55.286Z,6.70
2023-09-08T10:01:26.748Z,6.38
2023-09-08T10:03:56.181Z,6.43
2023-09-08T10:06:24.449Z,7.15
2023-09-08T10:08:53.400Z,7.30
2023-09-08T10:11:24.047Z,6.22
2023-09-08T10:13:59.692Z,6.03
2023-09-08T10:16:29.650Z,6.20
2023-09-08T10:19:00.592Z,6.72
2023-09-08T10:21:31.366Z,6.93
2023-09-08T10:24:09.464Z,6.70
2023-09-08T10:26:39.478Z,6.35
2023-09-08T10:29:09.288Z,6.55
2023-09-08T10:31:37.901Z,6.55
2023-09-08T10:36:35.627Z,5.97
2023-09-08T10:39:30.411Z,6.28
2023-09-08T10:42:21.668Z,5.88
2023-09-08T10:45:05.063Z,6.07
2023-09-08T10:47:36.248Z,5.38
2023-09-08T10:50:06.229Z,5.30
2023-09-08T10:52:36.304Z,5.88
2023-09-08T10:55:06.235Z,5.90
2023-09-08T10:57:35.490Z,6.30
2023-09-08T11:00:12.871Z,5.80
2023-09-08T11:02:42.388Z,5.97
2023-09-08T11:05:12.179Z,5.50
2023-09-08T11:07:40.234Z,5.28
2023-09-08T11:10:09.470Z,4.90
2023-09-08T11:12:37.306Z,5.15
2023-09-08T11:15:09.578Z,5.13
2023-09-08T11:17:40.693Z,5.32
2023-09-08T11:20:10.995Z,5.20
2023-09-08T11:22:40.232Z,4.90
2023-09-08T11:25:09.873Z,5.57
2023-09-08T11:27:37.548Z,4.60
2023-09-08T11:30:08.129Z,5.00
2023-09-08T11:32:37.175Z,4.68
2023-09-08T11:35:08.012Z,4.63
2023-09-08T11:37:40.444Z,5.07
2023-09-08T11:40:13.212Z,4.95
2023-09-08T11:42:44.939Z,4.60
2023-09-08T11:45:15.422Z,4.57
2023-09-08T11:47:44.600Z,4.80
2023-09-08T11:50:16.462Z,5.07
2023-09-08T11:52:45.891Z,4.70
2023-09-08T11:55:13.966Z,4.80
2023-09-08T11:57:42.277Z,4.55
2023-09-08T12:00:15.553Z,5.03
2023-09-08T12:02:44.698Z,4.82
2023-09-08T12:05:16.008Z,4.50
2023-09-08T12:07:43.654Z,4.63
2023-09-08T12:10:13.878Z,4.78
2023-09-08T12:12:46.158Z,4.50
2023-09-08T12:15:14.032Z,5.00
2023-09-08T12:17:52.191Z,4.60
2023-09-08T12:20:20.721Z,4.60
2023-09-08T12:22:51.948Z,4.93
2023-09-08T12:25:19.959Z,4.55
2023-09-08T12:27:51.595Z,5.10
2023-09-08T12:30:20.626Z,4.40
2023-09-08T12:32:50.703Z,4.75
2023-09-08T12:35:24.757Z,4.65
2023-09-08T12:37:58.903Z,4.80
2023-09-08T12:40:27.002Z,4.72
2023-09-08T12:42:56.040Z,4.22
2023-09-08T12:45:33.369Z,4.90
2023-09-08T12:48:03.566Z,4.80
2023-09-08T12:50:32.866Z,5.22
2023-09-08T12:53:00.482Z,4.90
2023-09-08T12:57:56.462Z,4.57
2023-09-08T13:00:24.901Z,4.75
2023-09-08T13:02:53.188Z,4.82
2023-09-08T13:05:21.105Z,5.22
2023-09-08T13:07:50.170Z,5.10
2023-09-08T13:10:17.941Z,4.78
2023-09-08T13:12:45.661Z,5.47
2023-09-08T13:15:13.517Z,4.88
2023-09-08T13:17:41.278Z,4.72
2023-09-08T13:20:10.163Z,5.00
2023-09-08T13:22:37.824Z,5.03
2023-09-08T13:25:08.017Z,5.10
2023-09-08T13:27:35.669Z,4.72
2023-09-08T13:30:10.974Z,4.63
2023-09-08T13:32:38.883Z,4.85
2023-09-08T13:35:07.399Z,4.65
2023-09-08T13:37:36.340Z,4.47
2023-09-08T13:40:05.064Z,4.40
2023-09-08T13:42:34.587Z,4.32
2023-09-08T13:45:02.525Z,4.70
2023-09-08T13:47:30.743Z,4.38
2023-09-08T13:49:59.360Z,5.05
2023-09-08T13:52:31.945Z,5.05
2023-09-08T13:55:24.591Z,4.53
2023-09-08T13:57:50.280Z,4.78
2023-09-08T14:00:22.763Z,4.70
2023-09-08T14:02:52.188Z,4.25
2023-09-08T14:05:28.381Z,4.70
2023-09-08T14:08:06.114Z,4.82
2023-09-08T14:13:08.432Z,4.30
2023-09-08T14:15:36.143Z,4.70
2023-09-08T14:20:31.268Z,4.72
2023-09-08T14:25:26.395Z,4.63
2023-09-08T14:27:54.246Z,4.55
2023-09-08T14:30:23.218Z,4.30
2023-09-08T14:32:50.861Z,4.65
2023-09-08T14:37:48.529Z,4.65
2023-09-08T14:40:16.835Z,4.43
2023-09-08T14:42:44.601Z,4.47
2023-09-08T14:45:13.401Z,4.07
2023-09-08T14:47:42.414Z,4.50
2023-09-08T14:50:10.535Z,4.30
2023-09-08T14:52:38.168Z,4.35
2023-09-08T14:55:06.442Z,4.70
2023-09-08T14:57:34.102Z,4.82
2023-09-08T15:07:25.929Z,4.65
2023-09-08T15:12:21.192Z,4.47
2023-09-08T15:14:49.039Z,4.70
2023-09-08T15:17:17.350Z,4.88
2023-09-08T15:19:45.019Z,4.47
2023-09-08T15:22:14.633Z,4.88
2023-09-08T15:24:42.279Z,5.10
2023-09-08T15:27:09.914Z,4.78
2023-09-08T15:29:37.542Z,4.65
2023-09-08T15:32:07.003Z,4.05
2023-09-08T15:34:34.636Z,4.57
2023-09-08T15:37:02.274Z,4.32
2023-09-08T15:39:31.397Z,4.25
2023-09-08T15:41:59.095Z,4.50
2023-09-08T15:44:26.707Z,4.57
2023-09-08T15:46:54.330Z,4.30
2023-09-08T15:49:23.246Z,4.85
2023-09-08T15:51:57.283Z,4.40
2023-09-08T15:54:33.727Z,4.57
2023-09-08T15:57:01.396Z,4.57
2023-09-08T15:59:29.322Z,4.43
2023-09-08T16:01:57.046Z,4.75
2023-09-08T16:04:24.910Z,4.53
2023-09-08T16:06:52.656Z,4.70
2023-09-08T16:09:20.488Z,5.20
2023-09-08T16:11:49.451Z,5.30
2023-09-08T16:14:17.100Z,5.53
2023-09-08T16:16:45.108Z,4.90
2023-09-08T16:21:40.427Z,5.65
2023-09-08T16:24:08.412Z,5.78
2023-09-08T16:26:36.058Z,5.35
2023-09-08T16:29:05.111Z,4.95
2023-09-08T16:31:32.785Z,4.85
2023-09-08T16:34:00.570Z,5.50
2023-09-08T16:36:28.255Z,4.88
2023-09-08T16:38:55.916Z,5.25
2023-09-08T16:41:23.639Z,5.33
2023-09-08T16:43:51.265Z,5.60
2023-09-08T16:46:21.343Z,5.00
2023-09-08T16:48:49.872Z,4.97
2023-09-08T16:53:45.011Z,5.32
2023-09-08T16:56:12.598Z,5.23
2023-09-08T16:58:40.197Z,5.55
2023-09-08T17:01:07.807Z,5.50
2023-09-08T17:03:37.067Z,5.05
2023-09-08T17:06:05.192Z,5.10
2023-09-08T17:08:32.917Z,5.90
2023-09-08T17:11:05.400Z,5.30
2023-09-08T17:13:34.348Z,5.32
2023-09-08T17:16:02.358Z,5.60
2023-09-08T17:18:30.213Z,5.73
2023-09-08T17:20:59.342Z,5.03
2023-09-08T17:23:27.099Z,5.53
2023-09-08T17:25:54.754Z,5.10
2023-09-08T17:28:22.380Z,5.03
2023-09-08T17:30:50.158Z,5.20
2023-09-08T17:33:20.011Z,5.63
2023-09-08T17:35:49.105Z,5.70
2023-09-08T17:38:18.183Z,5.72
2023-09-08T17:40:46.577Z,6.38
2023-09-08T17:43:14.243Z,6.07
2023-09-08T17:45:41.971Z,5.35
2023-09-08T17:48:09.820Z,6.00
2023-09-08T17:50:37.516Z,5.37
2023-09-08T17:53:05.469Z,5.38
2023-09-08T17:55:34.457Z,6.03
2023-09-08T17:58:02.049Z,5.80
2023-09-08T18:00:29.738Z,7.32
2023-09-08T18:02:57.432Z,6.20
2023-09-08T18:05:26.160Z,6.32
2023-09-08T18:07:53.788Z,5.88
2023-09-08T18:10:21.635Z,5.97
2023-09-08T18:12:50.645Z,6.60
2023-09-08T18:15:18.343Z,6.63
2023-09-08T18:17:48.226Z,6.32
2023-09-08T18:20:15.989Z,6.68
2023-09-08T18:22:43.658Z,6.13
2023-09-08T18:25:11.367Z,6.57
2023-09-08T18:27:39.339Z,6.45
2023-09-08T18:30:09.625Z,7.25
2023-09-08T18:32:37.814Z,7.00
2023-09-08T18:35:06.341Z,6.47
2023-09-08T18:37:34.025Z,6.72
2023-09-08T18:40:01.657Z,6.43
2023-09-08T18:42:29.441Z,6.60
2023-09-08T18:44:57.082Z,6.05
2023-09-08T18:47:26.079Z,6.55
2023-09-08T18:49:53.716Z,5.68
2023-09-08T18:52:21.344Z,6.63
2023-09-08T18:54:48.990Z,7.13
2023-09-08T18:57:16.905Z,6.32
2023-09-08T18:59:44.515Z,6.00
2023-09-08T19:02:12.215Z,6.53
2023-09-08T19:04:41.251Z,6.40
2023-09-08T19:07:08.965Z,7.07
2023-09-08T19:09:36.626Z,6.95
2023-09-08T19:12:04.826Z,6.78
2023-09-08T19:14:32.485Z,6.15
2023-09-08T19:17:01.546Z,6.20
2023-09-08T19:19:29.203Z,6.22
2023-09-08T19:21:58.235Z,6.15
2023-09-08T19:24:26.387Z,6.03
2023-09-08T19:26:54.040Z,5.88
2023-09-08T19:29:21.736Z,6.78
2023-09-08T19:31:49.366Z,7.78
2023-09-08T19:34:17.099Z,7.50
2023-09-08T19:36:44.763Z,6.25
2023-09-08T19:39:13.776Z,6.22
2023-09-08T19:41:41.398Z,6.28
2023-09-08T19:44:09.088Z,6.13
2023-09-08T19:46:37.606Z,6.82
2023-09-08T19:49:05.378Z,7.65
2023-09-08T19:51:33.080Z,8.57
2023-09-08T19:54:01.465Z,8.85
2023-09-08T19:56:30.762Z,9.02
2023-09-08T19:58:59.238Z,8.75
2023-09-08T20:01:28.977Z,9.13
2023-09-08T20:03:56.667Z,10.00
2023-09-08T20:06:24.442Z,8.70
2023-09-08T20:08:52.372Z,8.38
2023-09-08T20:11:20.040Z,9.77
2023-09-08T20:13:49.454Z,9.93
2023-09-08T20:16:17.129Z,8.65
2023-09-08T20:18:45.065Z,8.85
2023-09-08T20:21:12.813Z,8.93
2023-09-08T20:23:40.723Z,9.45
2023-09-08T20:26:09.760Z,10.25
2023-09-08T20:28:37.510Z,10.02
2023-09-08T20:31:16.344Z,8.82
2023-09-08T20:33:44.973Z,8.43
2023-09-08T20:36:12.733Z,8.18
2023-09-08T20:38:40.462Z,7.93
2023-09-08T20:41:10.716Z,9.00
2023-09-08T20:43:39.116Z,8.20
2023-09-08T20:46:08.443Z,12.20
2023-09-08T20:48:39.788Z,8.65
2023-09-08T20:51:09.328Z,8.90
2023-09-08T20:53:39.068Z,8.55
2023-09-08T20:56:08.341Z,8.63
2023-09-08T20:58:36.213Z,8.25
2023-09-08T21:01:04.145Z,7.88
2023-09-08T21:03:34.713Z,8.55
2023-09-08T21:06:03.622Z,9.13
2023-09-08T21:08:31.552Z,8.65
2023-09-08T21:10:59.540Z,8.45
2023-09-08T21:13:27.598Z,7.90
2023-09-08T21:15:55.410Z,8.37
2023-09-08T21:18:23.140Z,8.68
2023-09-08T21:20:52.145Z,8.85
2023-09-08T21:23:20.085Z,9.48
2023-09-08T21:25:47.836Z,9.52
2023-09-08T21:28:15.453Z,10.10
2023-09-08T21:30:43.090Z,9.32
2023-09-08T21:33:11.261Z,9.18
2023-09-08T21:35:39.101Z,8.82
2023-09-08T21:38:08.066Z,8.32
2023-09-08T21:43:03.885Z,8.73
2023-09-08T21:45:31.564Z,8.75
2023-09-08T21:47:59.277Z,8.55
2023-09-08T21:50:26.929Z,8.63
2023-09-08T21:52:54.601Z,8.70
2023-09-08T21:55:23.615Z,8.75
2023-09-08T21:57:51.304Z,9.73
2023-09-08T22:00:22.001Z,10.07
2023-09-08T22:02:50.236Z,10.27
2023-09-08T22:05:18.184Z,11.30
2023-09-08T22:07:45.911Z,9.35
2023-09-08T22:10:13.651Z,9.05
2023-09-08T22:12:42.723Z,8.50
2023-09-08T22:15:11.251Z,8.63
2023-09-08T22:17:38.921Z,8.65
2023-09-08T22:20:13.888Z,9.07
2023-09-08T22:22:41.968Z,8.07
2023-09-08T22:25:11.073Z,8.68
2023-09-08T22:27:39.104Z,7.82
2023-09-08T22:30:09.442Z,8.35
2023-09-08T22:32:37.533Z,7.82
2023-09-08T22:35:06.156Z,8.48
2023-09-08T22:37:34.985Z,8.00
2023-09-08T22:40:05.544Z,8.63
2023-09-08T22:42:33.230Z,7.10
2023-09-08T22:45:00.983Z,8.27
2023-09-08T22:47:29.951Z,8.05
2023-09-08T22:52:25.635Z,8.87
2023-09-08T22:54:57.958Z,8.68
2023-09-08T22:57:33.388Z,8.75
2023-09-08T23:00:01.493Z,9.15
2023-09-08T23:02:31.838Z,9.70
2023-09-08T23:05:00.316Z,9.45
2023-09-08T23:07:28.034Z,9.07
2023-09-08T23:09:55.745Z,9.52
2023-09-08T23:12:23.366Z,9.00
2023-09-08T23:14:54.731Z,9.35
2023-09-08T23:17:22.933Z,9.38
2023-09-08T23:19:51.963Z,9.48
2023-09-08T23:24:47.110Z,9.18
2023-09-08T23:27:14.962Z,9.73
2023-09-08T23:29:42.852Z,10.25
2023-09-08T23:32:10.656Z,9.95
2023-09-08T23:34:38.289Z,9.93
2023-09-08T23:37:07.478Z,10.38
2023-09-08T23:39:35.088Z,10.10
2023-09-08T23:42:03.343Z,9.75
2023-09-08T23:44:30.982Z,10.90
2023-09-08T23:46:58.719Z,9.52
2023-09-08T23:49:26.467Z,9.65
2023-09-08T23:51:54.079Z,10.07
2023-09-08T23:54:23.521Z,9.73
2023-09-08T23:56:51.202Z,9.80
2023-09-08T23:59:18.852Z,9.82
